createdAt,value
2018-10-09T00:01:36.073Z,14.23
2018-10-09T00:04:04.110Z,14.33
2018-10-09T00:06:31.991Z,13.67
2018-10-09T00:08:59.906Z,13.13
2018-10-09T00:11:27.704Z,14.80
2018-10-09T00:14:02.608Z,13.27
2018-10-09T00:16:30.497Z,15.27
2018-10-09T00:18:58.322Z,14.27
2018-10-09T00:21:26.437Z,13.40
2018-10-09T00:23:54.303Z,14.77
2018-10-09T00:26:22.092Z,13.37
2018-10-09T00:28:49.970Z,12.97
2018-10-09T00:31:17.851Z,15.17
2018-10-09T00:33:45.676Z,14.37
2018-10-09T00:36:16.947Z,14.87
2018-10-09T00:38:44.831Z,14.53
2018-10-09T00:41:12.757Z,15.13
2018-10-09T00:43:40.604Z,13.80
2018-10-09T00:46:08.500Z,15.73
2018-10-09T00:48:36.386Z,13.40
2018-10-09T00:51:04.579Z,14.43
2018-10-09T00:53:32.424Z,13.27
2018-10-09T00:56:00.722Z,20.13
2018-10-09T00:58:28.591Z,15.60
2018-10-09T01:00:56.826Z,16.30
2018-10-09T01:03:24.627Z,12.93
2018-10-09T01:05:52.752Z,16.20
2018-10-09T01:08:20.620Z,12.73
2018-10-09T01:10:48.534Z,11.53
2018-10-09T01:13:16.380Z,11.63
2018-10-09T01:15:44.547Z,13.17
2018-10-09T01:18:12.426Z,13.33
2018-10-09T01:20:40.343Z,12.30
2018-10-09T01:23:08.131Z,13.20
2018-10-09T01:25:36.083Z,15.20
2018-10-09T01:28:03.967Z,10.93
2018-10-09T01:30:32.728Z,12.77
2018-10-09T01:33:01.107Z,16.17
2018-10-09T01:35:28.915Z,15.23
2018-10-09T01:37:56.867Z,13.63
2018-10-09T01:40:25.436Z,16.30
2018-10-09T01:42:53.319Z,13.70
2018-10-09T01:45:21.195Z,13.50
2018-10-09T01:47:49.155Z,15.23
2018-10-09T01:50:17.100Z,14.97
2018-10-09T01:52:45.203Z,14.10
2018-10-09T01:55:13.031Z,15.50
2018-10-09T01:57:40.957Z,14.50
2018-10-09T02:00:09.588Z,16.13
2018-10-09T02:02:37.512Z,14.33
2018-10-09T02:05:05.727Z,15.60
2018-10-09T02:07:33.825Z,13.40
2018-10-09T02:10:01.769Z,13.87
2018-10-09T02:12:30.067Z,12.93
2018-10-09T02:14:58.186Z,14.67
2018-10-09T02:17:26.055Z,14.37
2018-10-09T02:19:53.881Z,15.90
2018-10-09T02:22:21.753Z,13.83
2018-10-09T02:24:49.619Z,14.20
2018-10-09T02:27:17.650Z,16.23
2018-10-09T02:29:45.484Z,15.47
2018-10-09T02:32:13.360Z,14.17
2018-10-09T02:34:41.142Z,13.43
2018-10-09T02:37:09.067Z,15.23
2018-10-09T02:39:36.863Z,15.97
2018-10-09T02:42:04.679Z,17.73
2018-10-09T02:44:32.521Z,18.43
2018-10-09T02:47:00.359Z,19.70
2018-10-09T02:49:28.198Z,17.87
2018-10-09T02:51:55.986Z,15.03
2018-10-09T02:54:24.055Z,15.20
2018-10-09T02:56:51.859Z,16.17
2018-10-09T02:59:19.755Z,19.00
2018-10-09T03:01:47.674Z,15.30
2018-10-09T03:04:15.503Z,14.50
2018-10-09T03:06:43.315Z,11.17
2018-10-09T03:09:11.100Z,17.13
2018-10-09T03:11:38.878Z,12.60
2018-10-09T03:14:06.835Z,14.87
2018-10-09T03:16:34.639Z,11.53
2018-10-09T03:19:02.510Z,10.83
2018-10-09T03:21:30.313Z,17.03
2018-10-09T03:23:58.114Z,18.10
2018-10-09T03:26:25.867Z,15.37
2018-10-09T03:28:53.684Z,16.17
2018-10-09T03:31:21.459Z,19.87
2018-10-09T03:33:49.591Z,19.00
2018-10-09T03:36:17.354Z,18.70
2018-10-09T03:38:45.133Z,20.27
2018-10-09T03:41:12.919Z,18.33
2018-10-09T03:43:40.776Z,19.10
2018-10-09T03:46:08.603Z,14.80
2018-10-09T03:48:36.755Z,16.47
2018-10-09T03:51:04.601Z,15.10
2018-10-09T03:53:32.736Z,14.50
2018-10-09T03:56:00.795Z,13.87
2018-10-09T03:58:28.588Z,14.43
2018-10-09T04:00:56.398Z,13.80
2018-10-09T04:03:24.195Z,13.43
2018-10-09T04:05:52.014Z,13.93
2018-10-09T04:08:19.827Z,14.13
2018-10-09T04:10:47.570Z,14.27
2018-10-09T04:13:15.343Z,17.40
2018-10-09T04:15:43.223Z,16.73
2018-10-09T04:18:11.087Z,15.03
2018-10-09T04:20:38.899Z,15.63
2018-10-09T04:23:06.704Z,12.40
2018-10-09T04:25:34.565Z,15.40
2018-10-09T04:28:02.412Z,14.97
2018-10-09T04:30:30.183Z,13.73
2018-10-09T04:32:58.123Z,15.13
2018-10-09T04:35:25.975Z,17.07
2018-10-09T04:37:53.855Z,14.43
2018-10-09T04:40:21.738Z,12.83
2018-10-09T04:42:49.510Z,20.00
2018-10-09T04:45:17.352Z,16.57
2018-10-09T04:47:45.190Z,14.93
2018-10-09T04:50:12.945Z,14.57
2018-10-09T04:52:40.807Z,17.33
2018-10-09T04:55:08.595Z,19.83
2018-10-09T04:57:36.630Z,17.07
2018-10-09T05:00:04.498Z,15.13
2018-10-09T05:02:32.282Z,13.77
2018-10-09T05:05:00.374Z,14.13
2018-10-09T05:07:28.134Z,12.87
2018-10-09T05:09:55.899Z,14.20
2018-10-09T05:12:23.714Z,14.40
2018-10-09T05:14:51.526Z,15.00
2018-10-09T05:17:19.663Z,14.50
2018-10-09T05:19:47.468Z,16.87
2018-10-09T05:22:15.263Z,17.43
2018-10-09T05:24:43.047Z,12.87
2018-10-09T05:27:10.811Z,17.30
2018-10-09T05:29:38.578Z,17.30
2018-10-09T05:32:06.542Z,18.33
2018-10-09T05:34:34.384Z,16.57
2018-10-09T05:37:02.158Z,17.63
2018-10-09T05:39:30.020Z,18.60
2018-10-09T05:41:57.926Z,19.77
2018-10-09T05:44:26.187Z,23.57
2018-10-09T05:46:53.875Z,17.70
2018-10-09T05:49:21.675Z,18.33
2018-10-09T05:51:49.438Z,22.93
2018-10-09T05:54:17.227Z,20.43
2018-10-09T05:56:45.022Z,17.93
2018-10-09T05:59:12.827Z,17.63
2018-10-09T06:01:40.603Z,16.57
2018-10-09T06:04:08.546Z,17.67
2018-10-09T06:06:36.367Z,17.57
2018-10-09T06:09:07.014Z,15.40
2018-10-09T06:11:34.771Z,15.30
2018-10-09T06:14:02.582Z,15.80
2018-10-09T06:16:30.375Z,14.27
2018-10-09T06:18:58.219Z,18.87
2018-10-09T06:21:26.113Z,16.17
2018-10-09T06:23:53.896Z,16.40
2018-10-09T06:26:21.746Z,16.50
2018-10-09T06:28:50.583Z,18.63
2018-10-09T06:31:18.407Z,17.40
2018-10-09T06:33:46.249Z,18.03
2018-10-09T06:36:14.011Z,17.23
2018-10-09T06:38:41.796Z,16.93
2018-10-09T06:41:09.549Z,19.57
2018-10-09T06:43:37.424Z,18.90
2018-10-09T06:46:05.242Z,19.70
2018-10-09T06:48:33.043Z,20.53
2018-10-09T06:51:00.979Z,18.53
2018-10-09T06:53:28.912Z,18.80
2018-10-09T06:55:56.591Z,19.00
2018-10-09T06:58:24.405Z,17.50
2018-10-09T07:00:52.228Z,17.10
2018-10-09T07:03:20.029Z,14.43
2018-10-09T07:05:47.819Z,16.13
2018-10-09T07:08:15.620Z,15.17
2018-10-09T07:10:43.567Z,18.30
2018-10-09T07:13:11.351Z,17.67
2018-10-09T07:15:39.132Z,17.97
2018-10-09T07:18:06.951Z,17.83
2018-10-09T07:20:34.740Z,16.93
2018-10-09T07:23:02.669Z,17.43
2018-10-09T07:25:30.442Z,17.13
2018-10-09T07:27:58.296Z,18.10
2018-10-09T07:30:26.005Z,16.17
2018-10-09T07:32:53.802Z,16.87
2018-10-09T07:35:21.560Z,15.13
2018-10-09T07:37:49.326Z,13.37
2018-10-09T07:40:17.118Z,16.83
2018-10-09T07:42:44.953Z,12.90
2018-10-09T07:45:12.811Z,11.57
2018-10-09T07:47:40.594Z,15.70
2018-10-09T07:50:08.411Z,12.97
2018-10-09T07:52:36.142Z,15.90
2018-10-09T07:55:03.951Z,12.47
2018-10-09T07:57:31.992Z,12.80
2018-10-09T07:59:59.743Z,12.90
2018-10-09T08:02:27.543Z,13.83
2018-10-09T08:04:55.452Z,13.37
2018-10-09T08:07:23.231Z,13.27
2018-10-09T08:09:50.995Z,14.00
2018-10-09T08:12:18.810Z,14.90
2018-10-09T08:14:46.627Z,14.13
2018-10-09T08:17:14.408Z,13.63
2018-10-09T08:19:42.302Z,14.90
2018-10-09T08:22:10.130Z,14.23
2018-10-09T08:24:37.960Z,15.23
2018-10-09T08:27:05.799Z,14.53
2018-10-09T08:29:33.572Z,14.70
2018-10-09T08:32:01.347Z,17.40
2018-10-09T08:34:29.284Z,14.73
2018-10-09T08:36:57.068Z,15.47
2018-10-09T08:39:24.907Z,15.50
2018-10-09T08:41:52.739Z,14.43
2018-10-09T08:44:20.607Z,15.37
2018-10-09T08:46:48.443Z,16.23
2018-10-09T08:49:16.735Z,15.73
2018-10-09T08:51:44.932Z,18.97
2018-10-09T08:54:12.773Z,18.73
2018-10-09T08:56:40.640Z,15.43
2018-10-09T08:59:08.799Z,18.00
2018-10-09T09:01:36.632Z,18.27
2018-10-09T09:04:04.559Z,20.00
2018-10-09T09:06:32.675Z,21.87
2018-10-09T09:09:00.796Z,20.37
2018-10-09T09:11:28.614Z,19.53
2018-10-09T09:13:56.527Z,25.23
2018-10-09T09:16:24.391Z,22.37
2018-10-09T09:18:52.288Z,19.87
2018-10-09T09:21:20.132Z,20.57
2018-10-09T09:23:47.887Z,23.33
2018-10-09T09:26:15.848Z,20.93
2018-10-09T09:28:43.619Z,19.83
2018-10-09T09:31:11.411Z,22.63
2018-10-09T09:33:39.221Z,18.50
2018-10-09T09:36:07.059Z,20.17
2018-10-09T09:38:34.850Z,23.57
2018-10-09T09:41:03.087Z,21.13
2018-10-09T09:43:30.918Z,20.80
2018-10-09T09:48:33.332Z,21.60
2018-10-09T09:51:01.311Z,24.27
2018-10-09T09:53:29.150Z,23.37
2018-10-09T09:55:57.043Z,22.00
2018-10-09T09:58:25.046Z,21.73
2018-10-09T10:00:57.535Z,22.10
2018-10-09T10:03:26.128Z,26.30
2018-10-09T10:05:53.959Z,23.97
2018-10-09T10:08:21.744Z,21.37
2018-10-09T10:10:49.625Z,21.50
2018-10-09T10:13:17.452Z,22.23
2018-10-09T10:15:45.258Z,21.60
2018-10-09T10:18:13.241Z,20.37
2018-10-09T10:20:41.059Z,20.60
2018-10-09T10:23:09.449Z,21.90
2018-10-09T10:25:37.943Z,23.20
2018-10-09T10:28:06.003Z,21.07
2018-10-09T10:30:33.810Z,22.80
2018-10-09T10:33:01.867Z,20.30
2018-10-09T10:35:29.632Z,18.70
2018-10-09T10:37:57.463Z,18.93
2018-10-09T10:40:25.329Z,20.37
2018-10-09T10:42:53.099Z,19.93
2018-10-09T10:45:20.900Z,21.30
2018-10-09T10:47:48.684Z,20.03
2018-10-09T10:50:16.815Z,19.20
2018-10-09T10:52:44.707Z,18.83
2018-10-09T10:55:12.492Z,18.07
2018-10-09T10:57:40.329Z,18.83
2018-10-09T11:00:08.232Z,18.57
2018-10-09T11:02:36.092Z,18.93
2018-10-09T11:05:03.981Z,18.10
2018-10-09T11:07:31.927Z,19.80
2018-10-09T11:09:59.763Z,19.53
2018-10-09T11:12:27.985Z,20.53
2018-10-09T11:14:56.190Z,19.30
2018-10-09T11:17:24.091Z,18.10
2018-10-09T11:19:52.143Z,19.27
2018-10-09T11:22:20.245Z,17.87
2018-10-09T11:24:55.030Z,20.13
2018-10-09T11:27:22.812Z,17.67
2018-10-09T11:29:50.968Z,20.47
2018-10-09T11:32:18.783Z,18.13
2018-10-09T11:34:46.682Z,18.60
2018-10-09T11:37:14.490Z,20.10
2018-10-09T11:39:42.397Z,19.37
2018-10-09T11:42:10.505Z,18.63
2018-10-09T11:44:38.355Z,20.07
2018-10-09T11:47:06.465Z,19.47
2018-10-09T11:49:34.340Z,21.07
2018-10-09T11:52:02.149Z,24.57
2018-10-09T11:54:30.243Z,19.13
2018-10-09T11:56:58.104Z,21.30
2018-10-09T11:59:26.044Z,18.90
2018-10-09T12:01:53.862Z,19.43
2018-10-09T12:04:21.686Z,19.03
2018-10-09T12:06:49.662Z,24.20
2018-10-09T12:09:17.487Z,20.00
2018-10-09T12:11:48.484Z,17.93
2018-10-09T12:14:16.279Z,17.57
2018-10-09T12:16:44.444Z,17.30
2018-10-09T12:19:12.310Z,18.03
2018-10-09T12:21:40.120Z,20.80
2018-10-09T12:24:07.957Z,18.33
2018-10-09T12:26:35.753Z,21.17
2018-10-09T12:29:03.609Z,17.87
2018-10-09T12:31:31.399Z,16.77
2018-10-09T12:33:59.232Z,19.17
2018-10-09T12:36:27.184Z,19.17
2018-10-09T12:38:54.960Z,17.03
2018-10-09T12:41:23.163Z,20.93
2018-10-09T12:43:50.950Z,15.77
2018-10-09T12:46:18.732Z,16.47
2018-10-09T12:48:46.543Z,16.13
2018-10-09T12:51:14.344Z,17.33
2018-10-09T12:53:42.184Z,16.10
2018-10-09T12:56:09.958Z,16.73
2018-10-09T12:58:37.842Z,19.20
2018-10-09T13:01:05.923Z,17.20
2018-10-09T13:03:33.764Z,15.47
2018-10-09T13:06:01.607Z,16.13
2018-10-09T13:08:29.385Z,14.00
2018-10-09T13:10:57.148Z,15.83
2018-10-09T13:13:25.030Z,15.67
2018-10-09T13:15:52.843Z,18.87
2018-10-09T13:18:20.671Z,17.90
2018-10-09T13:20:48.441Z,15.57
2018-10-09T13:23:16.222Z,15.67
2018-10-09T13:25:44.024Z,15.27
2018-10-09T13:28:11.837Z,17.10
2018-10-09T13:30:39.681Z,16.90
2018-10-09T13:33:07.845Z,15.47
2018-10-09T13:35:35.627Z,16.73
2018-10-09T13:38:03.467Z,15.43
2018-10-09T13:40:31.323Z,16.80
2018-10-09T13:42:59.116Z,14.90
2018-10-09T13:45:26.885Z,14.20
2018-10-09T13:47:54.673Z,14.73
2018-10-09T13:50:22.496Z,14.03
2018-10-09T13:52:50.396Z,14.10
2018-10-09T13:55:18.322Z,14.23
2018-10-09T13:57:46.036Z,13.33
2018-10-09T14:00:14.082Z,13.63
2018-10-09T14:02:41.840Z,17.40
2018-10-09T14:05:09.637Z,14.83
2018-10-09T14:07:37.456Z,13.93
2018-10-09T14:10:05.757Z,14.10
2018-10-09T14:12:33.524Z,14.90
2018-10-09T14:15:01.613Z,13.23
2018-10-09T14:17:29.341Z,13.10
2018-10-09T14:20:00.131Z,13.97
2018-10-09T14:22:28.130Z,17.07
2018-10-09T14:24:55.959Z,16.47
2018-10-09T14:27:23.825Z,12.80
2018-10-09T14:29:51.707Z,14.53
2018-10-09T14:32:19.642Z,13.97
2018-10-09T14:34:47.550Z,18.50
2018-10-09T14:40:25.743Z,12.23
2018-10-09T14:42:53.551Z,14.60
2018-10-09T14:45:21.314Z,13.57
2018-10-09T14:47:49.091Z,13.73
2018-10-09T14:50:16.871Z,13.83
2018-10-09T14:52:44.631Z,12.63
2018-10-09T14:55:12.420Z,13.27
2018-10-09T14:57:40.164Z,14.03
2018-10-09T15:00:09.587Z,12.60
2018-10-09T15:02:37.684Z,13.80
2018-10-09T15:05:05.566Z,12.67
2018-10-09T15:07:33.585Z,14.80
2018-10-09T15:10:01.345Z,13.20
2018-10-09T15:12:29.106Z,15.87
2018-10-09T15:14:56.915Z,15.73
2018-10-09T15:17:24.760Z,13.97
2018-10-09T15:19:59.088Z,18.27
2018-10-09T15:22:27.179Z,14.63
2018-10-09T15:24:54.961Z,13.53
2018-10-09T15:27:22.796Z,14.13
2018-10-09T15:29:50.588Z,15.07
2018-10-09T15:32:18.361Z,17.23
2018-10-09T15:34:46.121Z,14.27
2018-10-09T15:37:13.910Z,17.27
2018-10-09T15:39:41.642Z,13.40
2018-10-09T15:42:09.390Z,14.43
2018-10-09T15:44:37.259Z,15.40
2018-10-09T15:47:05.377Z,14.33
2018-10-09T15:49:33.095Z,15.60
2018-10-09T15:52:00.888Z,14.67
2018-10-09T15:54:28.629Z,13.70
2018-10-09T15:56:56.387Z,13.97
2018-10-09T15:59:24.291Z,15.20
2018-10-09T16:01:52.130Z,17.03
2018-10-09T16:04:20.084Z,14.97
2018-10-09T16:06:48.033Z,13.40
2018-10-09T16:09:15.899Z,14.50
2018-10-09T16:11:43.727Z,14.13
2018-10-09T16:14:11.508Z,15.23
2018-10-09T16:16:39.315Z,16.00
2018-10-09T16:19:07.127Z,17.30
2018-10-09T16:21:35.224Z,17.73
2018-10-09T16:24:03.017Z,15.00
2018-10-09T16:26:30.810Z,19.73
2018-10-09T16:28:58.622Z,16.53
2018-10-09T16:31:26.438Z,14.17
2018-10-09T16:33:57.524Z,18.67
2018-10-09T16:36:25.343Z,15.17
2018-10-09T16:38:53.201Z,16.60
2018-10-09T16:41:21.023Z,17.10
2018-10-09T16:43:48.835Z,15.70
2018-10-09T16:46:16.635Z,17.23
2018-10-09T16:48:44.384Z,16.67
2018-10-09T16:51:12.131Z,17.57
2018-10-09T16:53:39.915Z,17.30
2018-10-09T16:56:07.802Z,17.17
2018-10-09T16:58:35.532Z,17.60
2018-10-09T17:01:04.471Z,18.23
2018-10-09T17:03:32.227Z,20.50
2018-10-09T17:05:59.995Z,17.77
2018-10-09T17:08:27.908Z,21.13
2018-10-09T17:10:55.668Z,17.70
2018-10-09T17:13:23.722Z,17.30
2018-10-09T17:15:51.795Z,16.83
2018-10-09T17:18:19.599Z,18.10
2018-10-09T17:20:47.335Z,19.67
2018-10-09T17:23:15.193Z,15.43
2018-10-09T17:25:43.824Z,14.77
2018-10-09T17:28:11.663Z,18.57
2018-10-09T17:30:39.410Z,17.37
2018-10-09T17:33:07.225Z,20.93
2018-10-09T17:35:38.707Z,16.90
2018-10-09T17:38:06.559Z,22.03
2018-10-09T17:40:34.350Z,16.03
2018-10-09T17:43:02.188Z,16.40
2018-10-09T17:45:30.034Z,15.30
2018-10-09T17:47:57.919Z,17.63
2018-10-09T17:50:25.746Z,16.00
2018-10-09T17:52:53.572Z,18.43
2018-10-09T17:55:21.347Z,18.13
2018-10-09T17:57:49.117Z,23.13
2018-10-09T18:00:16.916Z,21.93
2018-10-09T18:02:45.124Z,17.30
2018-10-09T18:05:13.008Z,19.00
2018-10-09T18:07:40.816Z,18.97
2018-10-09T18:10:08.631Z,17.40
2018-10-09T18:12:36.508Z,24.00
2018-10-09T18:15:04.430Z,20.43
2018-10-09T18:17:32.572Z,20.33
2018-10-09T18:20:00.996Z,18.80
2018-10-09T18:22:28.784Z,17.57
2018-10-09T18:24:57.019Z,16.17
2018-10-09T18:27:24.972Z,20.93
2018-10-09T18:29:52.762Z,19.30
2018-10-09T18:32:20.629Z,19.63
2018-10-09T18:34:48.412Z,18.57
2018-10-09T18:37:16.203Z,18.87
2018-10-09T18:39:43.955Z,16.07
2018-10-09T18:42:11.739Z,15.57
2018-10-09T18:44:39.585Z,15.97
2018-10-09T18:47:12.004Z,21.03
2018-10-09T18:49:39.750Z,20.13
2018-10-09T18:52:07.595Z,19.47
2018-10-09T18:54:35.403Z,19.73
2018-10-09T18:57:03.260Z,17.80
2018-10-09T18:59:31.108Z,16.20
2018-10-09T19:01:58.863Z,18.80
2018-10-09T19:04:26.661Z,16.87
2018-10-09T19:06:54.528Z,17.50
2018-10-09T19:09:26.029Z,19.03
2018-10-09T19:11:53.807Z,21.87
2018-10-09T19:14:21.630Z,21.03
2018-10-09T19:16:49.459Z,22.17
2018-10-09T19:19:17.275Z,19.70
2018-10-09T19:21:45.383Z,18.93
2018-10-09T19:24:13.285Z,20.37
2018-10-09T19:26:41.136Z,15.90
2018-10-09T19:29:09.200Z,17.17
2018-10-09T19:31:37.067Z,17.30
2018-10-09T19:34:05.103Z,17.77
2018-10-09T19:36:32.886Z,15.90
2018-10-09T19:39:00.845Z,15.83
2018-10-09T19:41:28.628Z,18.77
2018-10-09T19:43:56.551Z,16.70
2018-10-09T19:46:24.362Z,18.53
2018-10-09T19:48:52.245Z,17.67
2018-10-09T19:51:20.304Z,16.53
2018-10-09T19:53:48.266Z,16.87
2018-10-09T19:56:16.138Z,13.33
2018-10-09T19:58:44.015Z,16.83
2018-10-09T20:01:12.161Z,18.93
2018-10-09T20:03:39.980Z,17.43
2018-10-09T20:06:07.781Z,15.47
2018-10-09T20:08:35.583Z,14.97
2018-10-09T20:11:03.466Z,15.53
2018-10-09T20:13:31.466Z,16.17
2018-10-09T20:15:59.403Z,15.60
2018-10-09T20:18:27.220Z,15.03
2018-10-09T20:20:55.432Z,16.10
2018-10-09T20:23:23.240Z,15.50
2018-10-09T20:25:54.886Z,15.87
2018-10-09T20:28:22.696Z,14.80
2018-10-09T20:30:50.547Z,18.00
2018-10-09T20:33:18.422Z,16.40
2018-10-09T20:35:46.435Z,17.53
2018-10-09T20:38:20.647Z,18.43
2018-10-09T20:40:48.439Z,18.20
2018-10-09T20:43:16.230Z,17.30
2018-10-09T20:45:47.080Z,19.13
2018-10-09T20:48:14.860Z,16.57
2018-10-09T20:50:42.650Z,17.10
2018-10-09T20:53:10.434Z,14.73
2018-10-09T20:55:38.329Z,14.33
2018-10-09T20:58:06.160Z,14.10
2018-10-09T21:00:34.231Z,14.20
2018-10-09T21:03:02.100Z,16.67
2018-10-09T21:05:30.193Z,14.77
2018-10-09T21:07:58.047Z,18.30
2018-10-09T21:10:25.879Z,16.07
2018-10-09T21:12:53.714Z,14.90
2018-10-09T21:15:21.483Z,16.97
2018-10-09T21:17:49.422Z,16.73
2018-10-09T21:20:17.031Z,17.97
2018-10-09T21:22:44.809Z,17.23
2018-10-09T21:25:12.672Z,15.37
2018-10-09T21:27:44.276Z,16.33
2018-10-09T21:30:12.058Z,15.03
2018-10-09T21:32:39.940Z,15.77
2018-10-09T21:35:07.875Z,15.83
2018-10-09T21:37:42.645Z,15.90
2018-10-09T21:40:10.451Z,15.83
2018-10-09T21:42:38.299Z,16.77
2018-10-09T21:45:06.092Z,14.73
2018-10-09T21:47:33.937Z,15.63
2018-10-09T21:50:01.820Z,14.97
2018-10-09T21:52:29.669Z,14.70
2018-10-09T21:54:57.767Z,15.30
2018-10-09T21:57:25.543Z,13.90
2018-10-09T21:59:53.337Z,15.83
2018-10-09T22:02:21.125Z,15.33
2018-10-09T22:04:48.907Z,15.70
2018-10-09T22:07:17.546Z,16.60
2018-10-09T22:09:45.475Z,15.73
2018-10-09T22:12:13.905Z,15.40
2018-10-09T22:14:41.803Z,15.47
2018-10-09T22:17:09.767Z,16.27
2018-10-09T22:19:37.743Z,15.73
2018-10-09T22:22:05.613Z,15.47
2018-10-09T22:24:33.622Z,15.47
2018-10-09T22:27:01.748Z,16.03
2018-10-09T22:29:29.567Z,15.00
2018-10-09T22:31:57.457Z,16.37
2018-10-09T22:34:25.190Z,14.87
2018-10-09T22:36:53.112Z,15.30
2018-10-09T22:39:20.948Z,14.50
2018-10-09T22:41:48.739Z,15.97
2018-10-09T22:44:16.850Z,17.50
2018-10-09T22:46:44.670Z,15.70
2018-10-09T22:49:12.463Z,14.53
2018-10-09T22:51:40.206Z,15.70
2018-10-09T22:54:08.030Z,15.60
2018-10-09T22:56:35.783Z,15.93
2018-10-09T22:59:03.748Z,16.27
2018-10-09T23:01:31.543Z,16.07
2018-10-09T23:03:59.438Z,17.20
2018-10-09T23:06:27.454Z,19.30
2018-10-09T23:08:55.362Z,16.43
2018-10-09T23:11:26.744Z,16.23
2018-10-09T23:13:54.604Z,16.43
2018-10-09T23:16:22.430Z,17.30
2018-10-09T23:18:50.257Z,15.33
2018-10-09T23:21:18.203Z,15.03
2018-10-09T23:23:46.012Z,15.23
2018-10-09T23:26:13.878Z,16.20
2018-10-09T23:28:41.679Z,18.37
2018-10-09T23:31:09.531Z,17.30
2018-10-09T23:33:37.517Z,16.87
2018-10-09T23:36:05.324Z,16.83
2018-10-09T23:38:33.167Z,15.63
2018-10-09T23:41:01.684Z,16.87
2018-10-09T23:43:29.493Z,13.63
2018-10-09T23:45:57.415Z,13.97
2018-10-09T23:48:25.471Z,17.00
2018-10-09T23:50:53.270Z,14.93
2018-10-09T23:53:21.170Z,14.80
2018-10-09T23:55:49.119Z,16.43
2018-10-09T23:58:16.907Z,16.90
